Time,TemperatureF,DewpointF,PressureIn,WindDirection,WindDirectionDegrees,WindSpeedMPH,WindSpeedGustMPH,Humidity,HourlyPrecipIn,Conditions,Clouds,dailyrainin,SoftwareType,DateUTC
2013-01-19 00:04:00,38.9,31.0,29.88,SW,223,21.0,-999.0,74,-99.99,,,0.00,weatherlink.com 1.10,2013-01-19 05:04:00,
2013-01-19 00:19:00,39.0,31.0,29.87,South,189,17.0,-999.0,74,-99.99,,,0.00,weatherlink.com 1.10,2013-01-19 05:19:00,
2013-01-19 00:34:00,39.3,32.0,29.87,SW,223,27.0,-999.0,74,-99.99,,,0.00,weatherlink.com 1.10,2013-01-19 05:34:00,
2013-01-19 00:49:00,39.2,32.0,29.86,WSW,238,19.0,-999.0,75,-99.99,,,0.00,weatherlink.com 1.10,2013-01-19 05:49:00,
2013-01-19 01:04:00,39.0,32.0,29.86,SW,231,17.0,-999.0,76,-99.99,,,0.00,weatherlink.com 1.10,2013-01-19 06:04:00,
2013-01-19 01:19:00,39.2,32.0,29.86,SW,229,15.0,-999.0,75,-99.99,,,0.00,weatherlink.com 1.10,2013-01-19 06:19:00,
2013-01-19 01:34:00,39.2,32.0,29.86,SW,232,17.0,-999.0,75,-99.99,,,0.00,weatherlink.com 1.10,2013-01-19 06:34:00,
2013-01-19 01:49:00,39.4,32.0,29.85,SW,220,14.0,-999.0,75,-99.99,,,0.00,weatherlink.com 1.10,2013-01-19 06:49:00,
2013-01-19 02:04:00,39.4,32.0,29.86,SW,217,16.0,-999.0,75,-99.99,,,0.00,weatherlink.com 1.10,2013-01-19 07:04:00,
2013-01-19 02:19:00,39.7,32.0,29.86,SSW,213,24.0,-999.0,75,-99.99,,,0.00,weatherlink.com 1.10,2013-01-19 07:19:00,
2013-01-19 02:34:00,39.7,32.0,29.87,SW,232,16.0,-999.0,75,-99.99,,,0.00,weatherlink.com 1.10,2013-01-19 07:34:00,
2013-01-19 02:49:00,39.7,32.0,29.87,WSW,242,14.0,-999.0,75,-99.99,,,0.00,weatherlink.com 1.10,2013-01-19 07:49:00,
2013-01-19 03:04:00,39.5,33.0,29.87,WSW,240,18.0,-999.0,76,-99.99,,,0.00,weatherlink.com 1.10,2013-01-19 08:04:00,
2013-01-19 03:19:00,39.3,33.0,29.86,SW,229,11.0,-999.0,77,-99.99,,,0.00,weatherlink.com 1.10,2013-01-19 08:19:00,
2013-01-19 03:34:00,38.8,33.0,29.87,SW,228,16.0,-999.0,79,-99.99,,,0.00,weatherlink.com 1.10,2013-01-19 08:34:00,
2013-01-19 03:49:00,38.7,33.0,29.87,SW,233,8.0,-999.0,79,-99.99,,,0.00,weatherlink.com 1.10,2013-01-19 08:49:00,
2013-01-19 04:04:00,38.5,33.0,29.86,SW,229,14.0,-999.0,81,-99.99,,,0.00,weatherlink.com 1.10,2013-01-19 09:04:00,
2013-01-19 04:19:00,38.5,33.0,29.86,SW,215,12.0,-999.0,81,-99.99,,,0.00,weatherlink.com 1.10,2013-01-19 09:19:00,
2013-01-19 04:34:00,38.4,33.0,29.87,SW,236,12.0,-999.0,82,-99.99,,,0.00,weatherlink.com 1.10,2013-01-19 09:34:00,
2013-01-19 04:49:00,38.5,33.0,29.86,SW,232,15.0,-999.0,82,-99.99,,,0.00,weatherlink.com 1.10,2013-01-19 09:49:00,
2013-01-19 05:04:00,38.6,33.0,29.86,SSW,213,11.0,-999.0,81,-99.99,,,0.00,weatherlink.com 1.10,2013-01-19 10:04:00,
2013-01-19 05:19:00,38.8,33.0,29.86,SW,216,12.0,-999.0,81,-99.99,,,0.00,weatherlink.com 1.10,2013-01-19 10:19:00,
2013-01-19 05:34:00,38.8,33.0,29.86,SW,234,13.0,-999.0,80,-99.99,,,0.00,weatherlink.com 1.10,2013-01-19 10:34:00,
2013-01-19 05:49:00,39.1,33.0,29.86,SW,236,11.0,-999.0,80,-99.99,,,0.00,weatherlink.com 1.10,2013-01-19 10:49:00,
2013-01-19 06:04:00,39.1,33.0,29.86,SW,226,7.0,-999.0,80,-99.99,,,0.00,weatherlink.com 1.10,2013-01-19 11:04:00,
2013-01-19 07:49:00,38.1,33.0,29.86,SSW,211,8.0,-999.0,83,-99.99,,,0.00,weatherlink.com 1.10,2013-01-19 12:49:00,
2013-01-19 08:04:00,37.8,34.0,29.87,SSW,211,9.0,-999.0,85,-99.99,,,0.00,weatherlink.com 1.10,2013-01-19 13:04:00,
2013-01-19 08:19:00,37.7,34.0,29.86,SW,218,7.0,-999.0,85,-99.99,,,0.00,weatherlink.com 1.10,2013-01-19 13:19:00,
2013-01-19 08:34:00,37.7,34.0,29.87,SW,215,9.0,-999.0,85,-99.99,,,0.00,weatherlink.com 1.10,2013-01-19 13:34:00,
2013-01-19 08:49:00,37.8,34.0,29.87,SSW,197,8.0,-999.0,85,-99.99,,,0.00,weatherlink.com 1.10,2013-01-19 13:49:00,
2013-01-19 09:04:00,38.0,34.0,29.87,SW,217,9.0,-999.0,85,-99.99,,,0.00,weatherlink.com 1.10,2013-01-19 14:04:00,
2013-01-19 09:19:00,38.2,34.0,29.86,SSW,207,10.0,-999.0,84,-99.99,,,0.00,weatherlink.com 1.10,2013-01-19 14:19:00,
2013-01-19 09:34:00,38.4,34.0,29.86,SW,223,10.0,-999.0,84,-99.99,,,0.00,weatherlink.com 1.10,2013-01-19 14:34:00,
2013-01-19 09:49:00,38.6,34.0,29.86,SW,217,13.0,-999.0,83,-99.99,,,0.00,weatherlink.com 1.10,2013-01-19 14:49:00,
2013-01-19 10:04:00,38.8,34.0,29.85,SW,223,14.0,-999.0,82,-99.99,,,0.00,weatherlink.com 1.10,2013-01-19 15:04:00,
2013-01-19 10:19:00,39.1,34.0,29.86,SW,225,13.0,-999.0,82,-99.99,,,0.00,weatherlink.com 1.10,2013-01-19 15:19:00,
2013-01-19 10:34:00,39.5,34.0,29.85,SW,214,11.0,-999.0,81,-99.99,,,0.00,weatherlink.com 1.10,2013-01-19 15:34:00,
2013-01-19 10:49:00,40.0,34.0,29.84,SW,219,14.0,-999.0,80,-99.99,,,0.00,weatherlink.com 1.10,2013-01-19 15:49:00,
2013-01-19 11:04:00,40.1,34.0,29.84,SW,223,12.0,-999.0,80,-99.99,,,0.00,weatherlink.com 1.10,2013-01-19 16:04:00,
2013-01-19 11:19:00,40.4,34.0,29.83,SW,223,14.0,-999.0,79,-99.99,,,0.00,weatherlink.com 1.10,2013-01-19 16:19:00,
2013-01-19 11:35:00,40.5,34.0,29.82,SSW,201,8.0,-999.0,78,-99.99,,,0.00,weatherlink.com 1.10,2013-01-19 16:35:00,
2013-01-19 11:49:00,40.8,34.0,29.81,SSW,211,14.0,-999.0,77,-99.99,,,0.00,weatherlink.com 1.10,2013-01-19 16:49:00,
2013-01-19 12:05:00,41.1,34.0,29.80,SW,221,13.0,-999.0,77,-99.99,,,0.00,weatherlink.com 1.10,2013-01-19 17:05:00,
2013-01-19 12:20:00,41.3,34.0,29.78,SW,229,16.0,-999.0,76,-99.99,,,0.00,weatherlink.com 1.10,2013-01-19 17:20:00,
2013-01-19 12:35:00,41.0,34.0,29.78,SSW,209,11.0,-999.0,76,-99.99,,,0.00,weatherlink.com 1.10,2013-01-19 17:35:00,
2013-01-19 13:05:00,40.6,34.0,29.75,SW,231,18.0,-999.0,76,-99.99,,,0.00,weatherlink.com 1.10,2013-01-19 18:05:00,
2013-01-19 13:35:00,40.6,34.0,29.73,SSW,213,20.0,-999.0,76,-99.99,,,0.00,weatherlink.com 1.10,2013-01-19 18:35:00,
2013-01-19 13:50:00,40.5,34.0,29.72,SW,226,14.0,-999.0,76,-99.99,,,0.00,weatherlink.com 1.10,2013-01-19 18:50:00,
2013-01-19 14:05:00,40.5,34.0,29.73,West,259,12.0,-999.0,76,-99.99,,,0.00,weatherlink.com 1.10,2013-01-19 19:05:00,
2013-01-19 14:50:00,40.3,34.0,29.69,South,183,18.0,-999.0,78,-99.99,,,0.00,weatherlink.com 1.10,2013-01-19 19:50:00,
2013-01-19 15:35:00,40.9,34.0,29.67,SSW,211,22.0,-999.0,77,-99.99,,,0.00,weatherlink.com 1.10,2013-01-19 20:35:00,
2013-01-19 15:50:00,41.3,34.0,29.66,SSW,194,16.0,-999.0,75,-99.99,,,0.00,weatherlink.com 1.10,2013-01-19 20:50:00,
2013-01-19 16:05:00,41.5,34.0,29.67,SW,231,9.0,-999.0,75,-99.99,,,0.00,weatherlink.com 1.10,2013-01-19 21:05:00,
2013-01-19 16:20:00,41.8,34.0,29.68,SW,223,15.0,-999.0,75,-99.99,,,0.00,weatherlink.com 1.10,2013-01-19 21:20:00,
2013-01-19 16:35:00,42.2,34.0,29.67,SSW,211,8.0,-999.0,74,-99.99,,,0.00,weatherlink.com 1.10,2013-01-19 21:35:00,
2013-01-19 16:50:00,42.4,35.0,29.66,SW,222,15.0,-999.0,74,-99.99,,,0.00,weatherlink.com 1.10,2013-01-19 21:50:00,
2013-01-19 17:05:00,42.3,35.0,29.66,SW,228,16.0,-999.0,76,-99.99,,,0.00,weatherlink.com 1.10,2013-01-19 22:05:00,
2013-01-19 17:20:00,41.6,36.0,29.66,SW,221,14.0,-999.0,79,-99.99,,,0.00,weatherlink.com 1.10,2013-01-19 22:20:00,
2013-01-19 17:35:00,41.4,35.0,29.65,SSW,205,16.0,-999.0,79,-99.99,,,0.00,weatherlink.com 1.10,2013-01-19 22:35:00,
2013-01-19 17:50:00,41.4,36.0,29.65,SW,223,14.0,-999.0,80,-99.99,,,0.00,weatherlink.com 1.10,2013-01-19 22:50:00,
2013-01-19 18:05:00,41.4,36.0,29.64,SW,218,15.0,-999.0,80,-99.99,,,0.00,weatherlink.com 1.10,2013-01-19 23:05:00,
2013-01-19 18:20:00,41.3,36.0,29.64,SW,214,10.0,-999.0,80,-99.99,,,0.00,weatherlink.com 1.10,2013-01-19 23:20:00,
2013-01-19 18:35:00,41.9,36.0,29.65,SW,232,17.0,-999.0,79,-99.99,,,0.00,weatherlink.com 1.10,2013-01-19 23:35:00,
2013-01-19 19:05:00,41.8,36.0,29.64,SSW,211,10.0,-999.0,81,-99.99,,,0.00,weatherlink.com 1.10,2013-01-20 00:05:00,
2013-01-19 19:20:00,41.7,37.0,29.62,WSW,240,17.0,-999.0,82,-99.99,,,0.00,weatherlink.com 1.10,2013-01-20 00:20:00,
2013-01-19 19:35:00,41.7,37.0,29.62,SW,231,15.0,-999.0,82,-99.99,,,0.00,weatherlink.com 1.10,2013-01-20 00:35:00,
2013-01-19 19:50:00,41.6,37.0,29.61,SW,229,17.0,-999.0,83,-99.99,,,0.00,weatherlink.com 1.10,2013-01-20 00:50:00,
2013-01-19 20:20:00,41.5,37.0,29.61,SW,225,11.0,-999.0,84,-99.99,,,0.00,weatherlink.com 1.10,2013-01-20 01:20:00,
2013-01-19 20:35:00,41.4,37.0,29.59,WSW,237,13.0,-999.0,84,-99.99,,,0.00,weatherlink.com 1.10,2013-01-20 01:35:00,
2013-01-19 20:50:00,41.6,37.0,29.59,WSW,238,9.0,-999.0,83,-99.99,,,0.00,weatherlink.com 1.10,2013-01-20 01:50:00,
2013-01-19 21:05:00,41.8,36.0,29.58,WSW,239,11.0,-999.0,81,-99.99,,,0.00,weatherlink.com 1.10,2013-01-20 02:05:00,
2013-01-19 21:20:00,42.5,36.0,29.58,SW,236,14.0,-999.0,79,-99.99,,,0.00,weatherlink.com 1.10,2013-01-20 02:20:00,
2013-01-19 21:35:00,42.7,36.0,29.57,WSW,254,17.0,-999.0,77,-99.99,,,0.00,weatherlink.com 1.10,2013-01-20 02:35:00,
2013-01-19 21:50:00,42.4,35.0,29.57,WSW,251,25.0,-999.0,76,-99.99,,,0.00,weatherlink.com 1.10,2013-01-20 02:50:00,
2013-01-19 22:05:00,42.1,35.0,29.56,WSW,250,16.0,-999.0,76,-99.99,,,0.00,weatherlink.com 1.10,2013-01-20 03:05:00,
2013-01-19 22:20:00,41.7,34.0,29.56,WSW,253,18.0,-999.0,75,-99.99,,,0.00,weatherlink.com 1.10,2013-01-20 03:20:00,
2013-01-19 22:35:00,39.2,32.0,29.57,West,277,23.0,-999.0,76,-99.99,,,0.00,weatherlink.com 1.10,2013-01-20 03:35:00,
2013-01-19 22:50:00,38.4,31.0,29.57,West,262,17.0,-999.0,76,-99.99,,,0.00,weatherlink.com 1.10,2013-01-20 03:50:00,
2013-01-19 23:05:00,38.8,28.0,29.57,WSW,250,23.0,-999.0,65,-99.99,,,0.00,weatherlink.com 1.10,2013-01-20 04:05:00,
2013-01-19 23:20:00,38.6,26.0,29.57,WSW,251,32.0,-999.0,61,-99.99,,,0.00,weatherlink.com 1.10,2013-01-20 04:20:00,
2013-01-19 23:35:00,38.2,24.0,29.57,West,275,19.0,-999.0,57,-99.99,,,0.00,weatherlink.com 1.10,2013-01-20 04:35:00,
2013-01-19 23:50:00,36.9,22.0,29.58,West,269,14.0,-999.0,56,-99.99,,,0.00,weatherlink.com 1.10,2013-01-20 04:50:00,